createdAt,value
2023-01-01T00:01:13.744Z,94.07
2023-01-01T00:04:16.063Z,94.49
2023-01-01T00:07:18.512Z,94.51
2023-01-01T00:10:29.593Z,94.34
2023-01-01T00:13:32.433Z,93.39
2023-01-01T00:16:34.746Z,93.20
2023-01-01T00:19:37.071Z,92.93
2023-01-01T00:22:56.051Z,93.27
2023-01-01T00:25:58.888Z,93.58
2023-01-01T00:29:02.111Z,93.48
2023-01-01T00:32:16.418Z,93.14
2023-01-01T00:35:21.391Z,93.01
2023-01-01T00:38:23.586Z,92.98
2023-01-01T00:41:25.798Z,92.66
2023-01-01T00:44:28.114Z,92.05
2023-01-01T00:47:30.373Z,91.97
2023-01-01T00:50:32.568Z,91.90
2023-01-01T00:53:35.066Z,91.88
2023-01-01T00:56:37.397Z,92.04
2023-01-01T00:59:39.666Z,92.73
2023-01-01T01:02:41.996Z,93.19
2023-01-01T01:05:44.364Z,93.39
2023-01-01T01:08:47.166Z,93.15
2023-01-01T01:11:49.435Z,92.77
2023-01-01T01:14:51.668Z,92.64
2023-01-01T01:17:54.563Z,92.23
2023-01-01T01:20:56.821Z,92.21
2023-01-01T01:24:00.605Z,92.35
2023-01-01T01:27:02.882Z,92.42
2023-01-01T01:30:05.770Z,92.98
2023-01-01T01:33:08.185Z,92.99
2023-01-01T01:36:11.759Z,93.03
2023-01-01T01:39:14.162Z,92.85
2023-01-01T01:42:17.958Z,92.69
2023-01-01T01:45:20.434Z,92.77
2023-01-01T01:48:24.031Z,92.37
2023-01-01T01:51:39.563Z,92.35
2023-01-01T01:54:42.370Z,92.40
2023-01-01T01:57:47.635Z,92.90
2023-01-01T02:00:50.354Z,93.11
2023-01-01T02:04:01.378Z,93.04
2023-01-01T02:07:03.662Z,92.94
2023-01-01T02:10:06.331Z,92.83
2023-01-01T02:13:08.907Z,92.86
2023-01-01T02:16:21.914Z,92.61
2023-01-01T02:20:10.617Z,92.83
2023-01-01T02:23:27.964Z,92.92
2023-01-01T02:26:48.589Z,93.12
2023-01-01T02:30:05.996Z,93.11
2023-01-01T02:33:14.188Z,93.11
2023-01-01T02:36:19.322Z,93.36
2023-01-01T02:39:25.753Z,93.30
2023-01-01T02:42:29.297Z,93.17
2023-01-01T02:45:32.134Z,93.62
2023-01-01T02:48:54.703Z,93.79
2023-01-01T02:52:05.078Z,93.89
2023-01-01T02:55:19.766Z,93.93
2023-01-01T02:59:02.844Z,94.34
2023-01-01T03:02:33.502Z,94.41
2023-01-01T03:06:23.819Z,94.40
2023-01-01T03:10:10.008Z,94.72
2023-01-01T03:13:20.880Z,95.18
2023-01-01T03:16:39.158Z,96.20
2023-01-01T03:19:42.502Z,96.65
2023-01-01T03:25:53.635Z,97.25
2023-01-01T03:28:58.919Z,97.31
2023-01-01T03:32:04.092Z,97.43
2023-01-01T03:35:06.655Z,97.73
2023-01-01T03:38:23.888Z,97.80
2023-01-01T03:41:34.661Z,98.04
2023-01-01T03:44:50.790Z,97.99
2023-01-01T03:47:53.171Z,98.03
2023-01-01T03:51:15.565Z,98.29
2023-01-01T03:54:30.973Z,98.49
2023-01-01T03:57:42.143Z,98.78
2023-01-01T04:00:50.536Z,98.89
2023-01-01T04:03:54.051Z,98.87
2023-01-01T04:06:57.836Z,99.08
2023-01-01T04:10:02.331Z,99.28
2023-01-01T04:13:06.421Z,99.48
2023-01-01T04:16:08.708Z,99.87
2023-01-01T04:19:12.241Z,99.88
2023-01-01T04:22:14.486Z,99.84
2023-01-01T04:25:17.574Z,99.96
2023-01-01T04:28:20.420Z,99.99
2023-01-01T04:31:22.621Z,99.99
2023-01-01T04:34:24.966Z,99.99
2023-01-01T04:37:27.327Z,99.99
2023-01-01T04:40:29.572Z,99.99
2023-01-01T04:43:32.238Z,99.99
2023-01-01T04:46:34.503Z,99.99
2023-01-01T04:49:37.106Z,99.90
2023-01-01T04:52:39.330Z,99.99
2023-01-01T04:55:41.562Z,99.99
2023-01-01T04:58:44.583Z,99.99
2023-01-01T05:01:47.139Z,99.99
2023-01-01T05:04:49.559Z,99.99
2023-01-01T05:07:51.782Z,99.99
2023-01-01T05:11:03.358Z,99.99
2023-01-01T05:14:06.264Z,99.99
2023-01-01T05:17:08.577Z,99.99
2023-01-01T05:20:11.132Z,99.99
2023-01-01T05:23:15.236Z,99.99
2023-01-01T05:26:20.333Z,99.99
2023-01-01T05:29:24.302Z,99.99
2023-01-01T05:32:26.497Z,99.99
2023-01-01T05:35:28.690Z,99.99
2023-01-01T05:38:31.696Z,99.99
2023-01-01T05:41:36.571Z,99.99
2023-01-01T05:44:39.061Z,99.99
2023-01-01T05:47:41.302Z,99.99
2023-01-01T05:50:43.550Z,99.99
2023-01-01T05:53:46.237Z,99.99
2023-01-01T05:56:48.485Z,99.99
2023-01-01T05:59:50.715Z,99.99
2023-01-01T06:02:55.044Z,99.99
2023-01-01T06:05:57.317Z,99.78
2023-01-01T06:09:01.844Z,99.65
2023-01-01T06:12:04.417Z,99.76
2023-01-01T06:15:07.434Z,99.74
2023-01-01T06:18:09.649Z,99.67
2023-01-01T06:21:17.070Z,99.74
2023-01-01T06:24:19.317Z,99.48
2023-01-01T06:27:21.626Z,99.30
2023-01-01T06:30:23.846Z,99.21
2023-01-01T06:33:26.041Z,99.00
2023-01-01T06:36:28.340Z,98.71
2023-01-01T06:39:30.575Z,98.52
2023-01-01T06:42:34.084Z,98.84
2023-01-01T06:45:36.477Z,98.22
2023-01-01T06:48:38.682Z,97.88
2023-01-01T06:51:43.515Z,97.38
2023-01-01T06:54:45.733Z,96.92
2023-01-01T06:57:52.162Z,96.35
2023-01-01T07:00:54.537Z,93.92
2023-01-01T07:04:02.194Z,92.12
2023-01-01T07:07:04.864Z,90.55
2023-01-01T07:10:07.652Z,89.64
2023-01-01T07:13:09.900Z,89.71
2023-01-01T07:16:14.003Z,89.29
2023-01-01T07:19:16.305Z,87.50
2023-01-01T07:22:18.552Z,86.60
2023-01-01T07:25:20.820Z,86.09
2023-01-01T07:28:24.538Z,85.26
2023-01-01T07:31:26.786Z,83.22
2023-01-01T07:34:29.052Z,81.83
2023-01-01T07:37:31.338Z,81.53
2023-01-01T07:40:34.072Z,80.54
2023-01-01T07:43:36.355Z,78.85
2023-01-01T07:46:38.752Z,78.49
2023-01-01T07:49:41.028Z,77.53
2023-01-01T07:52:43.563Z,74.46
2023-01-01T07:55:45.928Z,74.74
2023-01-01T07:58:48.120Z,74.06
2023-01-01T08:01:50.415Z,73.82
2023-01-01T08:04:52.716Z,74.31
2023-01-01T08:07:55.317Z,73.62
2023-01-01T08:11:03.931Z,71.24
2023-01-01T08:14:06.701Z,71.21
2023-01-01T08:17:08.910Z,70.92
2023-01-01T08:20:11.382Z,70.30
2023-01-01T08:23:13.581Z,68.57
2023-01-01T08:26:17.524Z,68.02
2023-01-01T08:29:20.252Z,68.41
2023-01-01T08:32:29.454Z,67.84
2023-01-01T08:35:31.683Z,72.32
2023-01-01T08:38:33.883Z,68.09
2023-01-01T08:41:36.081Z,65.21
2023-01-01T08:44:38.290Z,62.44
2023-01-01T08:47:40.526Z,62.33
2023-01-01T08:50:56.555Z,63.87
2023-01-01T08:53:58.787Z,63.16
2023-01-01T08:57:01.026Z,62.14
2023-01-01T09:00:03.874Z,64.36
2023-01-01T09:03:06.752Z,64.87
2023-01-01T09:06:09.059Z,65.53
2023-01-01T09:09:11.244Z,63.83
2023-01-01T09:12:16.464Z,67.00
2023-01-01T09:15:19.083Z,68.98
2023-01-01T09:18:21.546Z,70.59
2023-01-01T09:21:24.533Z,71.11
2023-01-01T09:24:27.532Z,72.40
2023-01-01T09:27:29.761Z,68.90
2023-01-01T09:30:32.162Z,66.97
2023-01-01T09:33:34.771Z,65.87
2023-01-01T09:36:37.006Z,67.49
2023-01-01T09:39:39.214Z,69.32
2023-01-01T09:42:53.875Z,70.34
2023-01-01T09:46:01.168Z,69.81
2023-01-01T09:49:15.341Z,71.76
2023-01-01T09:52:19.672Z,68.05
2023-01-01T09:55:43.698Z,68.74
2023-01-01T09:58:46.113Z,68.60
2023-01-01T10:01:57.280Z,67.12
2023-01-01T10:05:29.764Z,66.79
2023-01-01T10:09:16.787Z,64.21
2023-01-01T10:12:57.530Z,62.92
2023-01-01T10:16:12.561Z,62.80
2023-01-01T10:19:37.293Z,60.19
2023-01-01T10:22:44.420Z,58.81
2023-01-01T10:25:46.745Z,58.71
2023-01-01T10:28:56.157Z,58.71
2023-01-01T10:32:04.464Z,59.69
2023-01-01T10:35:14.015Z,61.73
2023-01-01T10:38:26.935Z,61.56
2023-01-01T10:41:29.181Z,60.97
2023-01-01T10:44:34.134Z,58.74
2023-01-01T10:47:36.339Z,56.32
2023-01-01T10:50:48.300Z,55.98
2023-01-01T10:53:53.065Z,53.83
2023-01-01T10:56:58.154Z,56.01
2023-01-01T11:00:27.778Z,54.73
2023-01-01T11:03:30.066Z,56.48
2023-01-01T11:06:42.528Z,53.80
2023-01-01T11:10:02.708Z,52.04
2023-01-01T11:13:19.173Z,52.40
2023-01-01T11:16:22.155Z,52.28
2023-01-01T11:19:29.229Z,51.34
2023-01-01T11:22:38.017Z,50.25
2023-01-01T11:25:41.621Z,50.71
2023-01-01T11:29:00.686Z,53.08
2023-01-01T11:32:07.916Z,55.41
2023-01-01T11:35:19.248Z,56.25
2023-01-01T11:38:29.192Z,56.62
2023-01-01T11:41:48.071Z,56.60
2023-01-01T11:44:55.070Z,54.90
2023-01-01T11:48:01.146Z,53.69
2023-01-01T11:51:07.283Z,51.44
2023-01-01T11:54:34.201Z,49.47
2023-01-01T11:57:39.820Z,49.38
2023-01-01T12:00:42.474Z,49.16
2023-01-01T12:03:49.462Z,49.59
2023-01-01T12:06:57.073Z,51.36
2023-01-01T12:10:04.951Z,51.33
2023-01-01T12:13:15.577Z,50.68
2023-01-01T12:16:25.341Z,50.45
2023-01-01T12:20:01.222Z,51.74
2023-01-01T12:23:03.560Z,54.21
2023-01-01T12:26:08.851Z,54.38
2023-01-01T12:29:39.241Z,51.93
2023-01-01T12:33:11.278Z,51.37
2023-01-01T12:36:45.149Z,51.19
2023-01-01T12:40:24.318Z,54.79
2023-01-01T12:43:47.112Z,55.48
2023-01-01T12:46:58.318Z,57.04
2023-01-01T12:50:25.796Z,54.33
2023-01-01T12:53:44.829Z,56.02
2023-01-01T12:56:58.315Z,54.00
2023-01-01T13:00:02.777Z,51.54
2023-01-01T13:03:36.674Z,50.48
2023-01-01T13:06:51.826Z,50.17
2023-01-01T13:09:54.718Z,47.55
2023-01-01T13:12:57.259Z,48.71
2023-01-01T13:15:59.665Z,47.04
2023-01-01T13:19:03.093Z,44.96
2023-01-01T13:22:26.928Z,46.17
2023-01-01T13:25:29.208Z,48.90
2023-01-01T13:28:31.396Z,50.09
2023-01-01T13:31:39.829Z,48.10
2023-01-01T13:35:01.530Z,50.68
2023-01-01T13:38:03.752Z,49.26
2023-01-01T13:41:35.533Z,47.58
2023-01-01T13:44:37.865Z,47.45
2023-01-01T13:48:17.533Z,46.57
2023-01-01T13:55:46.226Z,49.57
2023-01-01T13:59:07.812Z,49.06
2023-01-01T14:02:12.851Z,49.57
2023-01-01T14:05:37.743Z,49.79
2023-01-01T14:08:40.394Z,50.36
2023-01-01T14:11:42.880Z,49.72
2023-01-01T14:14:45.663Z,50.41
2023-01-01T14:17:49.196Z,50.22
2023-01-01T14:20:53.469Z,50.25
2023-01-01T14:24:05.171Z,52.12
2023-01-01T14:27:07.661Z,52.44
2023-01-01T14:30:17.105Z,53.22
2023-01-01T14:33:31.207Z,53.30
2023-01-01T14:36:33.632Z,54.38
2023-01-01T14:39:37.180Z,55.85
2023-01-01T14:42:40.454Z,57.97
2023-01-01T14:45:43.872Z,58.99
2023-01-01T14:48:49.759Z,62.32
2023-01-01T14:52:01.756Z,64.77
2023-01-01T14:55:05.976Z,66.06
2023-01-01T14:58:13.780Z,67.98
2023-01-01T15:01:18.345Z,68.40
2023-01-01T15:04:23.937Z,70.27
2023-01-01T15:07:31.495Z,70.41
2023-01-01T15:10:37.309Z,71.59
2023-01-01T15:13:39.521Z,73.71
2023-01-01T15:16:41.803Z,74.16
2023-01-01T15:19:46.370Z,74.31
2023-01-01T15:22:50.262Z,74.44
2023-01-01T15:25:52.566Z,75.96
2023-01-01T15:28:56.408Z,76.57
2023-01-01T15:32:10.438Z,77.27
2023-01-01T15:35:31.155Z,78.27
2023-01-01T15:38:46.194Z,79.33
2023-01-01T15:41:50.936Z,79.38
2023-01-01T15:44:53.235Z,78.88
2023-01-01T15:48:05.919Z,81.52
2023-01-01T15:51:15.088Z,82.20
2023-01-01T15:54:18.943Z,82.65
2023-01-01T15:57:23.341Z,82.10
2023-01-01T16:00:31.888Z,82.52
2023-01-01T16:03:36.977Z,85.00
2023-01-01T16:06:58.336Z,85.19
2023-01-01T16:10:00.574Z,85.21
2023-01-01T16:13:02.814Z,85.48
2023-01-01T16:16:19.864Z,85.24
2023-01-01T16:19:23.471Z,85.03
2023-01-01T16:22:25.693Z,84.78
2023-01-01T16:25:27.963Z,85.49
2023-01-01T16:28:30.200Z,87.06
2023-01-01T16:31:32.436Z,86.78
2023-01-01T16:34:34.658Z,86.74
2023-01-01T16:37:36.874Z,86.71
2023-01-01T16:40:39.505Z,87.03
2023-01-01T16:43:42.888Z,87.51
2023-01-01T16:46:45.226Z,88.42
2023-01-01T16:49:47.541Z,88.14
2023-01-01T16:52:49.811Z,88.30
2023-01-01T16:55:52.795Z,88.23
2023-01-01T16:59:02.628Z,88.48
2023-01-01T17:02:06.437Z,88.72
2023-01-01T17:05:09.819Z,88.59
2023-01-01T17:08:12.188Z,89.45
2023-01-01T17:11:16.954Z,89.15
2023-01-01T17:14:19.385Z,88.85
2023-01-01T17:17:21.574Z,88.87
2023-01-01T17:20:24.587Z,89.23
2023-01-01T17:23:26.831Z,89.79
2023-01-01T17:26:29.024Z,89.47
2023-01-01T17:29:31.313Z,89.54
2023-01-01T17:32:36.576Z,89.23
2023-01-01T17:35:38.817Z,88.53
2023-01-01T17:38:41.263Z,88.31
2023-01-01T17:41:44.476Z,88.20
2023-01-01T17:44:46.667Z,88.45
2023-01-01T17:47:48.940Z,88.28
2023-01-01T17:50:51.170Z,87.50
2023-01-01T17:53:53.853Z,87.44
2023-01-01T17:56:59.405Z,87.40
2023-01-01T18:00:03.241Z,87.64
2023-01-01T18:03:15.932Z,87.21
2023-01-01T18:06:21.057Z,87.06
2023-01-01T18:09:23.287Z,87.07
2023-01-01T18:12:25.564Z,86.92
2023-01-01T18:15:28.065Z,86.83
2023-01-01T18:18:33.658Z,86.51
2023-01-01T18:21:36.028Z,86.20
2023-01-01T18:24:38.305Z,86.16
2023-01-01T18:27:40.530Z,85.86
2023-01-01T18:30:42.786Z,85.38
2023-01-01T18:33:47.838Z,85.53
2023-01-01T18:36:50.078Z,85.53
2023-01-01T18:39:52.801Z,85.35
2023-01-01T18:43:19.903Z,84.72
2023-01-01T18:46:24.969Z,84.74
2023-01-01T18:49:27.584Z,84.57
2023-01-01T18:52:33.820Z,83.98
2023-01-01T18:55:36.080Z,83.99
2023-01-01T18:58:41.258Z,84.10
2023-01-01T19:01:44.464Z,83.66
2023-01-01T19:04:47.230Z,84.38
2023-01-01T19:08:07.816Z,84.67
2023-01-01T19:11:16.981Z,83.84
2023-01-01T19:14:22.554Z,83.26
2023-01-01T19:17:24.887Z,83.70
2023-01-01T19:20:27.087Z,84.41
2023-01-01T19:23:30.500Z,84.52
2023-01-01T19:26:34.961Z,84.32
2023-01-01T19:29:41.935Z,83.93
2023-01-01T19:32:47.316Z,83.94
2023-01-01T19:35:49.525Z,83.41
2023-01-01T19:38:58.711Z,83.67
2023-01-01T19:42:05.146Z,83.50
2023-01-01T19:45:13.739Z,83.71
2023-01-01T19:48:16.460Z,83.86
2023-01-01T19:51:19.326Z,83.61
2023-01-01T19:54:21.553Z,83.82
2023-01-01T19:57:23.774Z,83.92
2023-01-01T20:00:28.063Z,84.50
2023-01-01T20:06:53.164Z,84.54
2023-01-01T20:09:57.187Z,85.37
2023-01-01T20:12:59.558Z,85.32
2023-01-01T20:16:03.030Z,85.56
2023-01-01T20:19:05.381Z,85.88
2023-01-01T20:22:14.405Z,86.16
2023-01-01T20:25:17.003Z,86.56
2023-01-01T20:28:37.802Z,86.84
2023-01-01T20:31:40.123Z,87.05
2023-01-01T20:34:42.935Z,87.45
2023-01-01T20:37:45.494Z,87.38
2023-01-01T20:40:47.723Z,87.13
2023-01-01T20:43:52.415Z,87.24
2023-01-01T20:46:55.823Z,87.26
2023-01-01T20:49:58.184Z,87.89
2023-01-01T20:53:00.522Z,88.26
2023-01-01T20:56:02.797Z,88.17
2023-01-01T20:59:31.449Z,88.41
2023-01-01T21:02:27.477Z,88.25
2023-01-01T21:05:29.787Z,88.11
2023-01-01T21:08:32.470Z,88.36
2023-01-01T21:11:35.736Z,88.57
2023-01-01T21:14:38.202Z,88.76
2023-01-01T21:17:43.120Z,88.81
2023-01-01T21:20:47.047Z,88.94
2023-01-01T21:23:50.876Z,88.88
2023-01-01T21:27:18.427Z,89.23
2023-01-01T21:30:20.918Z,89.01
2023-01-01T21:33:28.898Z,89.38
2023-01-01T21:36:31.131Z,89.50
2023-01-01T21:39:33.349Z,89.79
2023-01-01T21:42:35.575Z,89.68
2023-01-01T21:45:41.103Z,89.57
2023-01-01T21:48:57.568Z,89.80
2023-01-01T21:52:01.533Z,89.89
2023-01-01T21:55:49.560Z,90.09
2023-01-01T21:59:10.931Z,90.58
2023-01-01T22:02:13.273Z,90.92
2023-01-01T22:05:30.405Z,91.12
2023-01-01T22:08:35.892Z,91.21
2023-01-01T22:11:38.150Z,91.44
2023-01-01T22:14:45.721Z,91.73
2023-01-01T22:17:47.931Z,91.70
2023-01-01T22:20:50.610Z,91.69
2023-01-01T22:23:57.886Z,91.77
2023-01-01T22:27:22.481Z,91.96
2023-01-01T22:30:42.169Z,92.22
2023-01-01T22:33:47.099Z,92.55
2023-01-01T22:36:49.541Z,92.50
2023-01-01T22:39:52.076Z,92.71
2023-01-01T22:42:54.383Z,92.86
2023-01-01T22:45:56.692Z,92.35
2023-01-01T22:49:02.260Z,92.71
2023-01-01T22:52:04.945Z,92.22
2023-01-01T22:55:07.506Z,91.99
2023-01-01T22:58:09.825Z,92.38
2023-01-01T23:01:12.035Z,92.22
2023-01-01T23:04:15.997Z,92.20
2023-01-01T23:07:18.188Z,92.60
2023-01-01T23:10:20.604Z,92.52
2023-01-01T23:13:41.439Z,92.93
2023-01-01T23:16:43.701Z,93.00
2023-01-01T23:19:45.899Z,93.19
2023-01-01T23:22:52.054Z,92.79
2023-01-01T23:25:54.901Z,93.35
2023-01-01T23:28:57.217Z,93.32
2023-01-01T23:32:00.631Z,93.57
2023-01-01T23:35:03.313Z,93.89
2023-01-01T23:38:05.621Z,94.68
2023-01-01T23:41:07.822Z,94.73
2023-01-01T23:44:10.053Z,94.53
2023-01-01T23:47:12.959Z,95.51
2023-01-01T23:50:15.275Z,95.45
2023-01-01T23:53:17.590Z,95.33
2023-01-01T23:56:19.857Z,95.47
2023-01-01T23:59:22.082Z,95.49
